createdAt,value
2023-04-24T00:00:40.228Z,998.52
2023-04-24T00:01:40.241Z,998.54
2023-04-24T00:02:40.325Z,998.48
2023-04-24T00:03:40.407Z,998.46
2023-04-24T00:04:40.208Z,998.45
2023-04-24T00:05:40.166Z,998.43
2023-04-24T00:06:40.145Z,998.43
2023-04-24T00:07:40.138Z,998.43
2023-04-24T00:08:40.162Z,998.39
2023-04-24T00:09:40.193Z,998.39
2023-04-24T00:10:40.102Z,998.40
2023-04-24T00:11:40.096Z,998.36
2023-04-24T00:12:40.102Z,998.34
2023-04-24T00:13:40.075Z,998.35
2023-04-24T00:14:40.062Z,998.35
2023-04-24T00:15:40.064Z,998.35
2023-04-24T00:16:40.114Z,998.32
2023-04-24T00:17:40.077Z,998.33
2023-04-24T00:18:40.025Z,998.29
2023-04-24T00:19:40.018Z,998.30
2023-04-24T00:20:39.994Z,998.31
2023-04-24T00:21:39.985Z,998.28
2023-04-24T00:22:40.033Z,998.29
2023-04-24T00:23:39.965Z,998.24
2023-04-24T00:24:39.969Z,998.22
2023-04-24T00:25:39.945Z,998.20
2023-04-24T00:26:39.949Z,998.22
2023-04-24T00:27:39.932Z,998.18
2023-04-24T00:28:39.918Z,998.16
2023-04-24T00:29:39.898Z,998.18
2023-04-24T00:30:39.884Z,998.16
2023-04-24T00:31:39.898Z,998.15
2023-04-24T00:32:39.919Z,998.15
2023-04-24T00:33:39.855Z,998.14
2023-04-24T00:34:39.841Z,998.08
2023-04-24T00:35:39.826Z,998.07
2023-04-24T00:36:39.822Z,998.07
2023-04-24T00:37:39.829Z,998.03
2023-04-24T00:38:39.813Z,998.02
2023-04-24T00:39:39.835Z,998.01
2023-04-24T00:40:39.801Z,998.01
2023-04-24T00:41:39.765Z,997.98
2023-04-24T00:42:39.773Z,997.98
2023-04-24T00:43:39.766Z,997.94
2023-04-24T00:44:39.734Z,997.91
2023-04-24T00:45:39.723Z,997.91
2023-04-24T00:46:39.741Z,997.92
2023-04-24T00:47:39.751Z,997.93
2023-04-24T00:48:39.692Z,997.88
2023-04-24T00:49:39.686Z,997.88
2023-04-24T00:50:39.673Z,997.88
2023-04-24T00:51:39.659Z,997.88
2023-04-24T00:52:39.695Z,997.90
2023-04-24T00:53:39.631Z,997.88
2023-04-24T00:54:39.629Z,997.85
2023-04-24T00:55:39.624Z,997.81
2023-04-24T00:56:39.643Z,997.82
2023-04-24T00:57:39.603Z,997.80
2023-04-24T00:58:39.589Z,997.78
2023-04-24T00:59:39.609Z,997.78
2023-04-24T01:00:39.561Z,997.77
2023-04-24T01:01:39.604Z,997.75
2023-04-24T01:02:39.903Z,997.75
2023-04-24T01:03:39.824Z,997.74
2023-04-24T01:04:39.630Z,997.79
2023-04-24T01:05:39.517Z,997.81
2023-04-24T01:06:39.498Z,997.87
2023-04-24T01:07:39.489Z,997.82
2023-04-24T01:08:39.494Z,997.85
2023-04-24T01:09:39.482Z,997.86
2023-04-24T01:10:39.448Z,997.85
2023-04-24T01:11:39.441Z,997.83
2023-04-24T01:12:39.462Z,997.84
2023-04-24T01:13:39.421Z,997.84
2023-04-24T01:14:39.406Z,997.81
2023-04-24T01:15:39.421Z,997.79
2023-04-24T01:16:39.427Z,997.83
2023-04-24T01:17:39.426Z,997.83
2023-04-24T01:18:39.375Z,997.80
2023-04-24T01:19:39.351Z,997.82
2023-04-24T01:20:39.342Z,997.86
2023-04-24T01:21:39.332Z,997.81
2023-04-24T01:22:39.343Z,997.80
2023-04-24T01:23:39.307Z,997.77
2023-04-24T01:24:39.304Z,997.73
2023-04-24T01:25:39.293Z,997.78
2023-04-24T01:26:39.294Z,997.76
2023-04-24T01:27:39.266Z,997.77
2023-04-24T01:28:39.413Z,997.72
2023-04-24T01:29:39.245Z,997.73
2023-04-24T01:30:39.246Z,997.66
2023-04-24T01:31:39.303Z,997.68
2023-04-24T01:32:39.386Z,997.64
2023-04-24T01:33:39.204Z,997.69
2023-04-24T01:34:39.206Z,997.72
2023-04-24T01:35:39.176Z,997.68
2023-04-24T01:36:39.171Z,997.65
2023-04-24T01:37:39.178Z,997.58
2023-04-24T01:38:39.147Z,997.63
2023-04-24T01:39:39.137Z,997.64
2023-04-24T01:40:39.130Z,997.66
2023-04-24T01:41:39.130Z,997.65
2023-04-24T01:42:39.098Z,997.64
2023-04-24T01:43:39.088Z,997.62
2023-04-24T01:44:39.100Z,997.69
2023-04-24T01:45:39.064Z,997.62
2023-04-24T01:46:39.094Z,997.63
2023-04-24T01:47:39.067Z,997.63
2023-04-24T01:48:39.033Z,997.57
2023-04-24T01:49:39.022Z,997.57
2023-04-24T01:50:39.013Z,997.51
2023-04-24T01:51:39.000Z,997.51
2023-04-24T01:52:39.011Z,997.45
2023-04-24T01:53:38.981Z,997.48
2023-04-24T01:54:38.985Z,997.47
2023-04-24T01:55:38.961Z,997.48
2023-04-24T01:56:38.984Z,997.48
2023-04-24T01:57:38.949Z,997.49
2023-04-24T01:58:38.925Z,997.47
2023-04-24T01:59:38.922Z,997.45
2023-04-24T02:00:38.952Z,997.43
2023-04-24T02:01:38.933Z,997.45
2023-04-24T02:02:39.100Z,997.45
2023-04-24T02:03:46.848Z,997.45
2023-04-24T02:04:38.872Z,997.47
2023-04-24T02:05:38.850Z,997.41
2023-04-24T02:06:38.852Z,997.44
2023-04-24T02:07:38.852Z,997.39
2023-04-24T02:08:38.827Z,997.38
2023-04-24T02:09:38.809Z,997.36
2023-04-24T02:10:38.792Z,997.40
2023-04-24T02:11:38.782Z,997.42
2023-04-24T02:12:38.791Z,997.42
2023-04-24T02:13:38.774Z,997.35
2023-04-24T02:14:38.754Z,997.28
2023-04-24T02:15:38.736Z,997.29
2023-04-24T02:16:38.977Z,997.28
2023-04-24T02:17:38.794Z,997.29
2023-04-24T02:18:38.712Z,997.28
2023-04-24T02:19:38.694Z,997.28
2023-04-24T02:20:38.687Z,997.28
2023-04-24T02:21:38.674Z,997.25
2023-04-24T02:22:38.685Z,997.17
2023-04-24T02:23:38.648Z,997.19
2023-04-24T02:24:38.640Z,997.27
2023-04-24T02:25:38.627Z,997.24
2023-04-24T02:26:38.618Z,997.17
2023-04-24T02:27:38.616Z,997.19
2023-04-24T02:28:38.635Z,997.21
2023-04-24T02:29:38.586Z,997.23
2023-04-24T02:30:38.577Z,997.15
2023-04-24T02:31:38.606Z,997.23
2023-04-24T02:32:38.601Z,997.20
2023-04-24T02:33:38.548Z,997.21
2023-04-24T02:34:38.533Z,997.21
2023-04-24T02:35:38.588Z,997.25
2023-04-24T02:36:38.539Z,997.24
2023-04-24T02:37:38.539Z,997.25
2023-04-24T02:38:38.490Z,997.24
2023-04-24T02:39:38.525Z,997.27
2023-04-24T02:40:38.472Z,997.25
2023-04-24T02:41:38.456Z,997.23
2023-04-24T02:42:38.462Z,997.21
2023-04-24T02:43:38.439Z,997.22
2023-04-24T02:44:38.445Z,997.22
2023-04-24T02:45:38.464Z,997.22
2023-04-24T02:46:38.406Z,997.24
2023-04-24T02:47:38.437Z,997.17
2023-04-24T02:48:38.400Z,997.20
2023-04-24T02:49:38.369Z,997.15
2023-04-24T02:50:38.367Z,997.21
2023-04-24T02:51:38.354Z,997.16
2023-04-24T02:52:38.353Z,997.19
2023-04-24T02:53:38.323Z,997.18
2023-04-24T02:54:38.325Z,997.17
2023-04-24T02:55:38.303Z,997.20
2023-04-24T02:56:38.325Z,997.17
2023-04-24T02:57:38.285Z,997.13
2023-04-24T02:58:38.280Z,997.11
2023-04-24T02:59:38.264Z,997.13
2023-04-24T03:00:38.251Z,997.12
2023-04-24T03:01:38.344Z,997.11
2023-04-24T03:02:38.389Z,997.10
2023-04-24T03:03:38.393Z,997.12
2023-04-24T03:04:38.476Z,997.09
2023-04-24T03:05:38.204Z,997.07
2023-04-24T03:06:38.196Z,997.06
2023-04-24T03:07:38.177Z,997.04
2023-04-24T03:08:38.172Z,997.06
2023-04-24T03:09:38.153Z,997.12
2023-04-24T03:10:38.167Z,997.15
2023-04-24T03:11:38.151Z,997.15
2023-04-24T03:12:38.122Z,997.18
2023-04-24T03:13:38.112Z,997.18
2023-04-24T03:14:38.101Z,997.17
2023-04-24T03:15:38.090Z,997.18
2023-04-24T03:16:38.183Z,997.20
2023-04-24T03:17:38.263Z,997.24
2023-04-24T03:18:38.066Z,997.24
2023-04-24T03:19:38.046Z,997.27
2023-04-24T03:20:38.073Z,997.30
2023-04-24T03:21:38.060Z,997.30
2023-04-24T03:22:38.020Z,997.29
2023-04-24T03:23:38.015Z,997.28
2023-04-24T03:24:37.998Z,997.27
2023-04-24T03:25:37.983Z,997.28
2023-04-24T03:26:37.986Z,997.30
2023-04-24T03:27:37.964Z,997.30
2023-04-24T03:28:37.971Z,997.27
2023-04-24T03:29:37.943Z,997.24
2023-04-24T03:30:37.936Z,997.23
2023-04-24T03:31:37.988Z,997.21
2023-04-24T03:32:37.949Z,997.15
2023-04-24T03:33:37.898Z,997.19
2023-04-24T03:34:37.889Z,997.22
2023-04-24T03:35:37.888Z,997.17
2023-04-24T03:36:37.901Z,997.20
2023-04-24T03:37:37.874Z,997.22
2023-04-24T03:38:37.857Z,997.15
2023-04-24T03:39:37.838Z,997.22
2023-04-24T03:40:37.858Z,997.21
2023-04-24T03:41:37.818Z,997.25
2023-04-24T03:42:39.332Z,997.31
2023-04-24T03:43:37.798Z,997.35
2023-04-24T03:44:37.787Z,997.34
2023-04-24T03:45:37.777Z,997.32
2023-04-24T03:46:37.887Z,997.35
2023-04-24T03:47:37.772Z,997.37
2023-04-24T03:48:37.736Z,997.30
2023-04-24T03:49:37.734Z,997.27
2023-04-24T03:50:37.717Z,997.31
2023-04-24T03:51:37.790Z,997.33
2023-04-24T03:52:37.715Z,997.31
2023-04-24T03:53:37.693Z,997.28
2023-04-24T03:54:37.673Z,997.29
2023-04-24T03:55:37.697Z,997.27
2023-04-24T03:56:37.656Z,997.30
2023-04-24T03:57:37.645Z,997.28
2023-04-24T03:58:37.640Z,997.29
2023-04-24T03:59:37.618Z,997.24
2023-04-24T04:00:37.605Z,997.26
2023-04-24T04:01:37.641Z,997.26
2023-04-24T04:02:37.701Z,997.30
2023-04-24T04:03:38.072Z,997.36
2023-04-24T04:04:37.688Z,997.34
2023-04-24T04:05:37.573Z,997.34
2023-04-24T04:06:37.541Z,997.27
2023-04-24T04:07:37.529Z,997.21
2023-04-24T04:08:37.536Z,997.21
2023-04-24T04:09:37.506Z,997.22
2023-04-24T04:10:37.537Z,997.17
2023-04-24T04:11:37.485Z,997.20
2023-04-24T04:12:37.478Z,997.20
2023-04-24T04:13:37.460Z,997.20
2023-04-24T04:14:37.452Z,997.19
2023-04-24T04:15:37.454Z,997.17
2023-04-24T04:16:37.519Z,997.21
2023-04-24T04:17:37.462Z,997.21
2023-04-24T04:18:37.407Z,997.24
2023-04-24T04:19:37.445Z,997.24
2023-04-24T04:20:37.399Z,997.22
2023-04-24T04:21:37.385Z,997.21
2023-04-24T04:22:37.426Z,997.21
2023-04-24T04:23:37.358Z,997.18
2023-04-24T04:24:37.362Z,997.21
2023-04-24T04:25:37.348Z,997.23
2023-04-24T04:26:37.319Z,997.11
2023-04-24T04:27:37.308Z,997.14
2023-04-24T04:28:37.298Z,997.13
2023-04-24T04:29:37.305Z,997.12
2023-04-24T04:30:37.273Z,997.17
2023-04-24T04:31:37.281Z,997.18
2023-04-24T04:32:37.260Z,997.23
2023-04-24T04:33:37.256Z,997.23
2023-04-24T04:34:37.253Z,997.19
2023-04-24T04:35:37.223Z,997.15
2023-04-24T04:36:37.208Z,997.15
2023-04-24T04:37:37.201Z,997.17
2023-04-24T04:38:37.188Z,997.16
2023-04-24T04:39:37.188Z,997.20
2023-04-24T04:40:37.226Z,997.22
2023-04-24T04:41:37.154Z,997.29
2023-04-24T04:42:37.148Z,997.25
2023-04-24T04:43:37.132Z,997.28
2023-04-24T04:44:37.195Z,997.35
2023-04-24T04:45:37.156Z,997.36
2023-04-24T04:46:37.102Z,997.36
2023-04-24T04:47:37.119Z,997.37
2023-04-24T04:48:37.078Z,997.39
2023-04-24T04:49:37.105Z,997.38
2023-04-24T04:50:37.067Z,997.41
2023-04-24T04:51:37.063Z,997.41
2023-04-24T04:52:37.047Z,997.39
2023-04-24T04:53:37.035Z,997.40
2023-04-24T04:54:37.085Z,997.36
2023-04-24T04:55:37.004Z,997.42
2023-04-24T04:56:37.012Z,997.46
2023-04-24T04:57:36.993Z,997.41
2023-04-24T04:58:36.971Z,997.40
2023-04-24T04:59:36.972Z,997.37
2023-04-24T05:00:36.970Z,997.41
2023-04-24T05:01:37.076Z,997.39
2023-04-24T05:02:37.059Z,997.42
2023-04-24T05:03:37.227Z,997.41
2023-04-24T05:04:37.121Z,997.47
2023-04-24T05:05:36.893Z,997.44
2023-04-24T05:06:36.884Z,997.44
2023-04-24T05:07:36.881Z,997.45
2023-04-24T05:08:36.877Z,997.51
2023-04-24T05:09:36.880Z,997.55
2023-04-24T05:10:36.839Z,997.55
2023-04-24T05:11:36.829Z,997.55
2023-04-24T05:12:36.837Z,997.51
2023-04-24T05:13:40.650Z,997.57
2023-04-24T05:14:36.825Z,997.53
2023-04-24T05:15:36.795Z,997.57
2023-04-24T05:16:36.801Z,997.58
2023-04-24T05:17:36.812Z,997.51
2023-04-24T05:18:36.800Z,997.49
2023-04-24T05:19:36.759Z,997.48
2023-04-24T05:20:36.728Z,997.50
2023-04-24T05:21:36.721Z,997.46
2023-04-24T05:22:36.710Z,997.50
2023-04-24T05:23:36.730Z,997.46
2023-04-24T05:24:36.703Z,997.52
2023-04-24T05:25:36.677Z,997.49
2023-04-24T05:26:36.666Z,997.56
2023-04-24T05:27:36.655Z,997.58
2023-04-24T05:28:36.676Z,997.58
2023-04-24T05:29:36.649Z,997.59
2023-04-24T05:30:36.621Z,997.65
2023-04-24T05:31:36.628Z,997.60
2023-04-24T05:32:36.615Z,997.59
2023-04-24T05:33:36.593Z,997.59
2023-04-24T05:34:36.609Z,997.58
2023-04-24T05:35:36.569Z,997.62
2023-04-24T05:36:36.559Z,997.52
2023-04-24T05:37:36.546Z,997.51
2023-04-24T05:38:36.542Z,997.45
2023-04-24T05:39:36.543Z,997.49
2023-04-24T05:40:36.514Z,997.52
2023-04-24T05:41:36.522Z,997.55
2023-04-24T05:42:36.505Z,997.56
2023-04-24T05:43:36.483Z,997.51
2023-04-24T05:44:36.597Z,997.59
2023-04-24T05:45:36.466Z,997.59
2023-04-24T05:46:36.488Z,997.62
2023-04-24T05:47:36.479Z,997.57
2023-04-24T05:48:36.432Z,997.56
2023-04-24T05:49:36.460Z,997.52
2023-04-24T05:50:37.212Z,997.52
2023-04-24T05:51:36.395Z,997.51
2023-04-24T05:52:36.402Z,997.52
2023-04-24T05:53:36.373Z,997.50
2023-04-24T05:54:36.376Z,997.56
2023-04-24T05:55:36.350Z,997.59
2023-04-24T05:56:36.347Z,997.62
2023-04-24T05:57:36.338Z,997.62
2023-04-24T05:58:36.333Z,997.65
2023-04-24T05:59:36.324Z,997.61
2023-04-24T06:00:36.334Z,997.64
2023-04-24T06:01:36.348Z,997.67
2023-04-24T06:02:36.473Z,997.74
2023-04-24T06:03:36.413Z,997.73
2023-04-24T06:04:36.433Z,997.76
2023-04-24T06:05:36.256Z,997.67
2023-04-24T06:06:36.231Z,997.65
2023-04-24T06:07:36.218Z,997.68
2023-04-24T06:08:36.218Z,997.69
2023-04-24T06:09:36.221Z,997.68
2023-04-24T06:10:36.188Z,997.68
2023-04-24T06:11:36.177Z,997.70
2023-04-24T06:12:36.164Z,997.71
2023-04-24T06:13:36.161Z,997.74
2023-04-24T06:14:36.184Z,997.73
2023-04-24T06:15:36.137Z,997.81
2023-04-24T06:16:36.169Z,997.87
2023-04-24T06:17:36.172Z,997.83
2023-04-24T06:18:36.105Z,997.84
2023-04-24T06:19:36.123Z,997.89
2023-04-24T06:20:36.105Z,997.89
2023-04-24T06:21:36.078Z,997.87
2023-04-24T06:22:36.057Z,997.86
2023-04-24T06:23:36.064Z,997.85
2023-04-24T06:24:36.095Z,997.86
2023-04-24T06:25:36.028Z,997.83
2023-04-24T06:26:36.013Z,997.82
2023-04-24T06:27:36.011Z,997.78
2023-04-24T06:28:35.990Z,997.77
2023-04-24T06:29:35.990Z,997.79
2023-04-24T06:30:36.008Z,997.79
2023-04-24T06:31:36.005Z,997.84
2023-04-24T06:32:36.012Z,997.84
2023-04-24T06:33:36.030Z,997.87
2023-04-24T06:34:35.942Z,997.83
2023-04-24T06:35:35.919Z,997.81
2023-04-24T06:36:35.905Z,997.85
2023-04-24T06:37:35.914Z,997.94
2023-04-24T06:38:35.881Z,997.89
2023-04-24T06:39:35.889Z,997.94
2023-04-24T06:40:35.861Z,997.90
2023-04-24T06:41:35.869Z,997.86
2023-04-24T06:42:35.840Z,997.96
2023-04-24T06:43:35.830Z,997.97
2023-04-24T06:44:35.852Z,997.96
2023-04-24T06:45:35.811Z,998.00
2023-04-24T06:46:35.857Z,997.96
2023-04-24T06:47:35.823Z,997.94
2023-04-24T06:48:35.795Z,997.91
2023-04-24T06:49:35.853Z,997.90
2023-04-24T06:50:35.759Z,997.85
2023-04-24T06:51:35.742Z,997.80
2023-04-24T06:52:35.734Z,997.78
2023-04-24T06:53:35.752Z,997.80
2023-04-24T06:54:35.730Z,997.85
2023-04-24T06:55:35.698Z,997.84
2023-04-24T06:56:35.686Z,997.86
2023-04-24T06:57:35.689Z,997.85
2023-04-24T06:58:35.666Z,997.82
2023-04-24T06:59:35.679Z,997.83
2023-04-24T07:00:35.646Z,997.88
2023-04-24T07:01:35.661Z,997.85
2023-04-24T07:02:35.750Z,997.82
2023-04-24T07:03:35.785Z,997.82
2023-04-24T07:04:35.808Z,997.79
2023-04-24T07:05:35.591Z,997.79
2023-04-24T07:06:35.601Z,997.80
2023-04-24T07:07:35.573Z,997.85
2023-04-24T07:08:35.597Z,997.81
2023-04-24T07:09:35.575Z,997.77
2023-04-24T07:10:35.540Z,997.81
2023-04-24T07:11:35.530Z,997.79
2023-04-24T07:12:35.530Z,997.82
2023-04-24T07:13:35.511Z,997.78
2023-04-24T07:14:35.523Z,997.71
2023-04-24T07:15:35.489Z,997.73
2023-04-24T07:16:35.483Z,997.71
2023-04-24T07:17:35.482Z,997.72
2023-04-24T07:18:35.455Z,997.76
2023-04-24T07:19:35.468Z,997.72
2023-04-24T07:20:35.469Z,997.78
2023-04-24T07:21:35.438Z,997.76
2023-04-24T07:22:35.415Z,997.74
2023-04-24T07:23:35.402Z,997.78
2023-04-24T07:24:35.419Z,997.74
2023-04-24T07:25:35.435Z,997.80
2023-04-24T07:26:35.419Z,997.73
2023-04-24T07:27:35.367Z,997.72
2023-04-24T07:28:35.367Z,997.70
2023-04-24T07:29:35.373Z,997.76
2023-04-24T07:30:35.332Z,997.76
2023-04-24T07:31:35.444Z,997.83
2023-04-24T07:32:35.474Z,997.81
2023-04-24T07:33:35.387Z,997.85
2023-04-24T07:34:35.360Z,997.85
2023-04-24T07:35:35.383Z,997.83
2023-04-24T07:36:35.284Z,997.82
2023-04-24T07:37:35.256Z,997.85
2023-04-24T07:38:35.284Z,997.75
2023-04-24T07:39:35.403Z,997.73
2023-04-24T07:40:35.228Z,997.76
2023-04-24T07:41:35.227Z,997.80
2023-04-24T07:42:35.211Z,997.80
2023-04-24T07:43:35.190Z,997.73
2023-04-24T07:44:35.205Z,997.74
2023-04-24T07:45:35.195Z,997.75
2023-04-24T07:46:35.208Z,997.74
2023-04-24T07:47:35.171Z,997.70
2023-04-24T07:48:35.149Z,997.73
2023-04-24T07:49:35.146Z,997.75
2023-04-24T07:50:35.125Z,997.68
2023-04-24T07:51:35.108Z,997.74
2023-04-24T07:52:35.263Z,997.73
2023-04-24T07:53:35.109Z,997.72
2023-04-24T07:54:35.099Z,997.78
2023-04-24T07:55:35.065Z,997.82
2023-04-24T07:56:35.056Z,997.79
2023-04-24T07:57:35.056Z,997.74
2023-04-24T07:58:35.041Z,997.77
2023-04-24T07:59:35.032Z,997.72
2023-04-24T08:00:35.013Z,997.76
2023-04-24T08:01:35.003Z,997.70
2023-04-24T08:02:35.112Z,997.79
2023-04-24T08:03:35.133Z,997.73
2023-04-24T08:04:42.253Z,997.80
2023-04-24T08:06:34.951Z,997.75
2023-04-24T08:07:34.951Z,997.75
2023-04-24T08:08:34.971Z,997.70
2023-04-24T08:09:34.982Z,997.71
2023-04-24T08:10:34.911Z,997.67
2023-04-24T08:11:34.928Z,997.71
2023-04-24T08:12:34.899Z,997.78
2023-04-24T08:13:34.898Z,997.75
2023-04-24T08:14:34.908Z,997.79
2023-04-24T08:15:34.862Z,997.76
2023-04-24T08:16:35.064Z,997.78
2023-04-24T08:17:34.853Z,997.77
2023-04-24T08:18:34.836Z,997.76
2023-04-24T08:19:34.885Z,997.79
2023-04-24T08:20:34.824Z,997.84
2023-04-24T08:21:34.798Z,997.82
2023-04-24T08:22:34.803Z,997.80
2023-04-24T08:23:34.791Z,997.82
2023-04-24T08:24:34.805Z,997.83
2023-04-24T08:25:34.760Z,997.82
2023-04-24T08:26:34.762Z,997.80
2023-04-24T08:27:34.737Z,997.73
2023-04-24T08:28:34.733Z,997.77
2023-04-24T08:29:34.744Z,997.71
2023-04-24T08:30:34.708Z,997.67
2023-04-24T08:31:34.757Z,997.66
2023-04-24T08:32:34.715Z,997.72
2023-04-24T08:33:34.693Z,997.68
2023-04-24T08:34:34.685Z,997.73
2023-04-24T08:35:34.650Z,997.72
2023-04-24T08:36:45.832Z,997.70
2023-04-24T08:37:35.651Z,997.71
2023-04-24T08:38:34.635Z,997.69
2023-04-24T08:39:34.622Z,997.66
2023-04-24T08:40:34.705Z,997.70
2023-04-24T08:41:34.586Z,997.71
2023-04-24T08:42:34.578Z,997.70
2023-04-24T08:43:34.581Z,997.74
2023-04-24T08:44:34.597Z,997.72
2023-04-24T08:45:34.766Z,997.70
2023-04-24T08:46:34.595Z,997.73
2023-04-24T08:47:34.574Z,997.74
2023-04-24T08:48:34.517Z,997.75
2023-04-24T08:49:34.550Z,997.70
2023-04-24T08:50:34.498Z,997.68
2023-04-24T08:51:34.491Z,997.68
2023-04-24T08:52:34.474Z,997.76
2023-04-24T08:53:34.491Z,997.73
2023-04-24T08:54:34.475Z,997.69
2023-04-24T08:55:34.454Z,997.67
2023-04-24T08:56:34.482Z,997.77
2023-04-24T08:57:34.424Z,997.75
2023-04-24T08:58:34.424Z,997.78
2023-04-24T08:59:34.432Z,997.77
2023-04-24T09:00:34.401Z,997.82
2023-04-24T09:01:34.431Z,997.79
2023-04-24T09:02:34.479Z,997.75
2023-04-24T09:03:34.690Z,997.75
2023-04-24T09:04:34.630Z,997.74
2023-04-24T09:05:34.334Z,997.74
2023-04-24T09:06:34.328Z,997.79
2023-04-24T09:07:34.316Z,997.83
2023-04-24T09:08:34.312Z,997.85
2023-04-24T09:09:34.342Z,997.86
2023-04-24T09:10:34.284Z,997.82
2023-04-24T09:11:34.274Z,997.89
2023-04-24T09:12:34.284Z,997.83
2023-04-24T09:13:34.247Z,997.83
2023-04-24T09:14:34.265Z,997.88
2023-04-24T09:15:34.237Z,997.83
2023-04-24T09:16:36.529Z,997.91
2023-04-24T09:17:34.310Z,997.83
2023-04-24T09:18:34.201Z,997.91
2023-04-24T09:19:34.208Z,997.89
2023-04-24T09:20:34.178Z,997.84
2023-04-24T09:21:34.164Z,997.82
2023-04-24T09:22:34.158Z,997.85
2023-04-24T09:23:34.172Z,997.84
2023-04-24T09:24:34.168Z,997.80
2023-04-24T09:25:34.140Z,997.86
2023-04-24T09:26:34.110Z,997.83
2023-04-24T09:27:34.104Z,997.88
2023-04-24T09:28:34.105Z,997.90
2023-04-24T09:29:34.130Z,997.86
2023-04-24T09:30:34.064Z,997.90
2023-04-24T09:31:34.105Z,997.86
2023-04-24T09:32:34.074Z,997.90
2023-04-24T09:33:34.030Z,997.87
2023-04-24T09:34:34.051Z,997.92
2023-04-24T09:35:34.011Z,997.89
2023-04-24T09:36:34.020Z,997.88
2023-04-24T09:37:33.988Z,997.93
2023-04-24T09:38:33.979Z,997.93
2023-04-24T09:39:34.013Z,997.97
2023-04-24T09:40:33.963Z,997.94
2023-04-24T09:41:33.955Z,997.97
2023-04-24T09:42:33.939Z,997.98
2023-04-24T09:43:33.921Z,997.91
2023-04-24T09:44:33.948Z,997.96
2023-04-24T09:45:33.907Z,997.93
2023-04-24T09:46:33.923Z,997.98
2023-04-24T09:47:33.935Z,997.90
2023-04-24T09:48:33.869Z,997.93
2023-04-24T09:49:33.865Z,997.96
2023-04-24T09:50:33.849Z,997.88
2023-04-24T09:51:33.842Z,997.95
2023-04-24T09:52:33.860Z,997.92
2023-04-24T09:53:33.817Z,997.90
2023-04-24T09:54:33.826Z,997.87
2023-04-24T09:55:33.804Z,997.87
2023-04-24T09:56:33.783Z,997.87
2023-04-24T09:57:33.768Z,997.90
2023-04-24T09:58:33.777Z,997.89
2023-04-24T09:59:36.094Z,997.82
2023-04-24T10:00:33.758Z,997.82
2023-04-24T10:01:33.836Z,997.82
2023-04-24T10:02:33.820Z,997.89
2023-04-24T10:03:33.750Z,997.85
2023-04-24T10:04:33.761Z,997.86
2023-04-24T10:05:33.785Z,997.86
2023-04-24T10:06:33.676Z,997.79
2023-04-24T10:07:33.661Z,997.83
2023-04-24T10:08:33.666Z,997.77
2023-04-24T10:09:33.664Z,997.75
2023-04-24T10:10:33.659Z,997.71
2023-04-24T10:11:33.623Z,997.74
2023-04-24T10:12:33.608Z,997.69
2023-04-24T10:13:33.604Z,997.74
2023-04-24T10:14:33.606Z,997.72
2023-04-24T10:15:33.628Z,997.79
2023-04-24T10:16:33.688Z,997.80
2023-04-24T10:17:33.560Z,997.74
2023-04-24T10:18:33.551Z,997.80
2023-04-24T10:19:33.603Z,997.83
2023-04-24T10:20:33.523Z,997.78
2023-04-24T10:21:33.521Z,997.76
2023-04-24T10:22:33.506Z,997.81
2023-04-24T10:23:33.518Z,997.80
2023-04-24T10:24:33.498Z,997.79
2023-04-24T10:25:33.487Z,997.69
2023-04-24T10:26:33.470Z,997.75
2023-04-24T10:27:33.451Z,997.79
2023-04-24T10:28:33.459Z,997.76
2023-04-24T10:29:33.439Z,997.81
2023-04-24T10:30:33.432Z,997.79
2023-04-24T10:31:33.441Z,997.76
2023-04-24T10:32:33.446Z,997.76
2023-04-24T10:33:33.409Z,997.81
2023-04-24T10:34:33.406Z,997.74
2023-04-24T10:35:33.358Z,997.74
2023-04-24T10:36:33.371Z,997.74
2023-04-24T10:37:33.336Z,997.74
2023-04-24T10:38:33.334Z,997.72
2023-04-24T10:39:33.344Z,997.77
2023-04-24T10:40:33.308Z,997.83
2023-04-24T10:41:33.294Z,997.86
2023-04-24T10:42:33.287Z,997.86
2023-04-24T10:43:33.275Z,997.84
2023-04-24T10:44:33.309Z,997.81
2023-04-24T10:45:33.249Z,997.84
2023-04-24T10:46:33.299Z,997.80
2023-04-24T10:47:33.263Z,997.81
2023-04-24T10:48:33.237Z,997.86
2023-04-24T10:49:33.262Z,997.83
2023-04-24T10:50:33.205Z,997.80
2023-04-24T10:51:33.189Z,997.81
2023-04-24T10:52:33.182Z,997.84
2023-04-24T10:53:33.169Z,997.81
2023-04-24T10:54:33.186Z,997.78
2023-04-24T10:55:33.149Z,997.76
2023-04-24T10:56:33.145Z,997.71
2023-04-24T10:57:33.123Z,997.73
2023-04-24T10:58:33.119Z,997.72
2023-04-24T10:59:33.121Z,997.72
2023-04-24T11:00:33.139Z,997.73
2023-04-24T11:01:33.286Z,997.75
2023-04-24T11:02:33.126Z,997.72
2023-04-24T11:03:33.504Z,997.69
2023-04-24T11:04:33.145Z,997.73
2023-04-24T11:05:33.038Z,997.66
2023-04-24T11:06:33.039Z,997.71
2023-04-24T11:07:33.018Z,997.71
2023-04-24T11:08:33.048Z,997.73
2023-04-24T11:09:33.007Z,997.75
2023-04-24T11:10:32.990Z,997.76
2023-04-24T11:11:32.977Z,997.78
2023-04-24T11:12:32.974Z,997.76
2023-04-24T11:13:32.955Z,997.77
2023-04-24T11:14:32.986Z,997.72
2023-04-24T11:15:32.949Z,997.69
2023-04-24T11:16:33.031Z,997.67
2023-04-24T11:17:33.140Z,997.67
2023-04-24T11:18:32.932Z,997.71
2023-04-24T11:19:32.902Z,997.68
2023-04-24T11:20:32.927Z,997.61
2023-04-24T11:21:32.868Z,997.60
2023-04-24T11:22:32.863Z,997.57
2023-04-24T11:23:32.849Z,997.60
2023-04-24T11:24:32.967Z,997.63
2023-04-24T11:25:32.832Z,997.64
2023-04-24T11:26:32.820Z,997.66
2023-04-24T11:27:32.807Z,997.61
2023-04-24T11:28:32.820Z,997.61
2023-04-24T11:29:32.832Z,997.68
2023-04-24T11:30:32.780Z,997.71
2023-04-24T11:31:32.792Z,997.78
2023-04-24T11:32:32.782Z,997.85
2023-04-24T11:33:32.758Z,997.88
2023-04-24T11:34:32.752Z,997.86
2023-04-24T11:35:32.729Z,997.91
2023-04-24T11:36:32.734Z,997.89
2023-04-24T11:37:32.748Z,997.94
2023-04-24T11:38:32.697Z,997.90
2023-04-24T11:39:32.696Z,997.90
2023-04-24T11:40:32.701Z,997.95
2023-04-24T11:41:32.681Z,997.89
2023-04-24T11:42:32.657Z,997.89
2023-04-24T11:43:33.530Z,997.87
2023-04-24T11:44:32.689Z,997.87
2023-04-24T11:45:32.680Z,997.86
2023-04-24T11:46:32.728Z,997.84
2023-04-24T11:47:32.689Z,997.85
2023-04-24T11:48:32.582Z,997.89
2023-04-24T11:49:32.598Z,997.88
2023-04-24T11:50:32.565Z,997.86
2023-04-24T11:51:36.891Z,997.84
2023-04-24T11:52:33.562Z,997.79
2023-04-24T11:53:32.528Z,997.82
2023-04-24T11:54:32.532Z,997.80
2023-04-24T11:55:32.506Z,997.77
2023-04-24T11:56:32.498Z,997.81
2023-04-24T11:57:32.484Z,997.77
2023-04-24T11:58:32.475Z,997.73
2023-04-24T11:59:32.479Z,997.73
2023-04-24T12:00:32.456Z,997.77
2023-04-24T12:01:32.451Z,997.75
2023-04-24T12:02:32.579Z,997.71
2023-04-24T12:03:32.595Z,997.75
2023-04-24T12:04:35.311Z,997.72
2023-04-24T12:05:32.552Z,997.69
2023-04-24T12:06:32.392Z,997.69
2023-04-24T12:07:32.379Z,997.74
2023-04-24T12:08:32.390Z,997.74
2023-04-24T12:09:32.404Z,997.73
2023-04-24T12:10:32.345Z,997.71
2023-04-24T12:11:32.334Z,997.67
2023-04-24T12:12:32.382Z,997.70
2023-04-24T12:13:32.312Z,997.68
2023-04-24T12:14:32.313Z,997.62
2023-04-24T12:15:32.683Z,997.60
2023-04-24T12:16:32.309Z,997.58
2023-04-24T12:17:32.303Z,997.52
2023-04-24T12:18:32.263Z,997.58
2023-04-24T12:19:32.292Z,997.51
2023-04-24T12:20:32.281Z,997.49
2023-04-24T12:21:32.251Z,997.49
2023-04-24T12:22:32.215Z,997.45
2023-04-24T12:23:32.200Z,997.48
2023-04-24T12:24:32.247Z,997.46
2023-04-24T12:25:32.208Z,997.43
2023-04-24T12:26:32.173Z,997.42
2023-04-24T12:27:32.167Z,997.44
2023-04-24T12:28:32.155Z,997.44
2023-04-24T12:29:32.151Z,997.33